Time,TemperatureF,DewpointF,PressureIn,WindDirection,WindDirectionDegrees,WindSpeedMPH,WindSpeedGustMPH,Humidity,HourlyPrecipIn,Conditions,Clouds,dailyrainin,SoftwareType,DateUTC
2013-02-09 00:12:00,53.0,50.0,-100.00,WNW,294,2.0,-999.0,90,0.00,,,-99.99,,2013-02-09 05:12:00,
2013-02-09 00:22:00,53.0,50.0,-100.00,WNW,294,2.0,-999.0,90,0.00,,,-99.99,,2013-02-09 05:22:00,
2013-02-09 00:32:00,53.0,50.0,-100.00,WNW,294,2.0,-999.0,90,0.00,,,-99.99,,2013-02-09 05:32:00,
2013-02-09 00:42:00,53.0,50.0,-100.00,WNW,294,2.0,-999.0,90,0.00,,,-99.99,,2013-02-09 05:42:00,
2013-02-09 01:21:00,52.0,50.0,-100.00,NW,322,3.0,-999.0,91,0.00,,,-99.99,,2013-02-09 06:21:00,
2013-02-09 01:32:00,52.0,50.0,-100.00,NW,322,3.0,-999.0,91,0.00,,,-99.99,,2013-02-09 06:32:00,
2013-02-09 01:42:00,52.0,50.0,-100.00,NW,322,3.0,-999.0,91,0.00,,,-99.99,,2013-02-09 06:42:00,
2013-02-09 02:22:00,51.0,49.0,-100.00,NNW,334,2.0,-999.0,93,0.00,,,-99.99,,2013-02-09 07:22:00,
2013-02-09 02:32:00,51.0,49.0,-100.00,NNW,334,2.0,-999.0,93,0.00,,,-99.99,,2013-02-09 07:32:00,
2013-02-09 02:42:00,51.0,49.0,-100.00,NNW,334,2.0,-999.0,93,0.00,,,-99.99,,2013-02-09 07:42:00,
2013-02-09 03:21:00,49.0,45.0,-100.00,NNW,346,2.0,-999.0,88,0.00,,,-99.99,,2013-02-09 08:21:00,
2013-02-09 03:32:00,49.0,45.0,-100.00,NNW,346,2.0,-999.0,88,0.00,,,-99.99,,2013-02-09 08:32:00,
2013-02-09 03:42:00,49.0,45.0,-100.00,NNW,346,2.0,-999.0,88,0.00,,,-99.99,,2013-02-09 08:42:00,
2013-02-09 04:22:00,47.0,43.0,-100.00,North,355,2.0,-999.0,85,0.00,,,-99.99,,2013-02-09 09:22:00,
2013-02-09 04:32:00,47.0,43.0,-100.00,North,355,2.0,-999.0,85,0.00,,,-99.99,,2013-02-09 09:32:00,
2013-02-09 04:42:00,47.0,43.0,-100.00,North,355,2.0,-999.0,85,0.00,,,-99.99,,2013-02-09 09:42:00,
2013-02-09 05:21:00,45.0,40.0,-100.00,North,8,3.0,-999.0,82,0.00,,,-99.99,,2013-02-09 10:21:00,
2013-02-09 05:32:00,45.0,40.0,-100.00,North,8,3.0,-999.0,82,0.00,,,-99.99,,2013-02-09 10:32:00,
2013-02-09 05:42:00,45.0,40.0,-100.00,North,8,3.0,-999.0,82,0.00,,,-99.99,,2013-02-09 10:42:00,
2013-02-09 06:22:00,44.0,38.0,-100.00,North,1,3.0,-999.0,80,0.00,,,-99.99,,2013-02-09 11:22:00,
2013-02-09 06:32:00,44.0,38.0,-100.00,North,1,3.0,-999.0,80,0.00,,,-99.99,,2013-02-09 11:32:00,
2013-02-09 06:42:00,44.0,38.0,-100.00,North,1,3.0,-999.0,80,0.00,,,-99.99,,2013-02-09 11:42:00,
2013-02-09 07:22:00,42.0,36.0,-100.00,North,5,2.0,-999.0,81,0.00,,,-99.99,,2013-02-09 12:22:00,
2013-02-09 07:32:00,42.0,36.0,-100.00,North,5,2.0,-999.0,81,0.00,,,-99.99,,2013-02-09 12:32:00,
2013-02-09 07:42:00,42.0,36.0,-100.00,North,5,2.0,-999.0,81,0.00,,,-99.99,,2013-02-09 12:42:00,
2013-02-09 08:22:00,42.0,36.0,-100.00,North,3,2.0,-999.0,80,0.00,,,-99.99,,2013-02-09 13:22:00,
2013-02-09 08:32:00,42.0,36.0,-100.00,North,3,2.0,-999.0,80,0.00,,,-99.99,,2013-02-09 13:32:00,
2013-02-09 08:42:00,42.0,36.0,-100.00,North,3,2.0,-999.0,80,0.00,,,-99.99,,2013-02-09 13:42:00,
2013-02-09 09:22:00,45.0,37.0,-100.00,NNE,12,4.0,-999.0,72,0.00,,,-99.99,,2013-02-09 14:22:00,
2013-02-09 09:32:00,45.0,37.0,-100.00,NNE,12,4.0,-999.0,72,0.00,,,-99.99,,2013-02-09 14:32:00,
2013-02-09 09:42:00,45.0,37.0,-100.00,NNE,12,4.0,-999.0,72,0.00,,,-99.99,,2013-02-09 14:42:00,
2013-02-09 10:22:00,48.0,35.0,-100.00,NNE,12,4.0,-999.0,61,0.00,,,-99.99,,2013-02-09 15:22:00,
2013-02-09 10:32:00,48.0,35.0,-100.00,NNE,12,4.0,-999.0,61,0.00,,,-99.99,,2013-02-09 15:32:00,
2013-02-09 10:42:00,48.0,35.0,-100.00,NNE,12,4.0,-999.0,61,0.00,,,-99.99,,2013-02-09 15:42:00,
2013-02-09 11:22:00,52.0,36.0,-100.00,NNE,20,3.0,-999.0,53,0.00,,,-99.99,,2013-02-09 16:22:00,
2013-02-09 11:32:00,52.0,36.0,-100.00,NNE,20,3.0,-999.0,53,0.00,,,-99.99,,2013-02-09 16:32:00,
2013-02-09 11:42:00,52.0,36.0,-100.00,NNE,20,3.0,-999.0,53,0.00,,,-99.99,,2013-02-09 16:42:00,
2013-02-09 12:22:00,55.0,35.0,-100.00,NNE,24,4.0,-999.0,46,0.00,,,-99.99,,2013-02-09 17:22:00,
2013-02-09 12:32:00,55.0,35.0,-100.00,NNE,24,4.0,-999.0,46,0.00,,,-99.99,,2013-02-09 17:32:00,
2013-02-09 12:42:00,55.0,35.0,-100.00,NNE,24,4.0,-999.0,46,0.00,,,-99.99,,2013-02-09 17:42:00,
2013-02-09 13:23:00,59.0,30.0,-100.00,NNE,20,4.0,-999.0,34,0.00,,,-99.99,,2013-02-09 18:23:00,
2013-02-09 13:32:00,59.0,30.0,-100.00,NNE,20,4.0,-999.0,34,0.00,,,-99.99,,2013-02-09 18:32:00,
2013-02-09 13:42:00,59.0,30.0,-100.00,NNE,20,4.0,-999.0,34,0.00,,,-99.99,,2013-02-09 18:42:00,
2013-02-09 14:22:00,61.0,27.0,-100.00,North,11,3.0,-999.0,27,0.00,,,-99.99,,2013-02-09 19:22:00,
2013-02-09 14:32:00,61.0,27.0,-100.00,North,11,3.0,-999.0,27,0.00,,,-99.99,,2013-02-09 19:32:00,
2013-02-09 14:42:00,61.0,27.0,-100.00,North,11,3.0,-999.0,27,0.00,,,-99.99,,2013-02-09 19:42:00,
2013-02-09 15:22:00,63.0,27.0,-100.00,North,2,4.0,-999.0,26,0.00,,,-99.99,,2013-02-09 20:22:00,
2013-02-09 15:32:00,63.0,27.0,-100.00,North,2,4.0,-999.0,26,0.00,,,-99.99,,2013-02-09 20:32:00,
2013-02-09 15:42:00,63.0,27.0,-100.00,North,2,4.0,-999.0,26,0.00,,,-99.99,,2013-02-09 20:42:00,
2013-02-09 16:22:00,63.0,24.0,-100.00,NNE,18,4.0,-999.0,23,0.00,,,-99.99,,2013-02-09 21:22:00,
2013-02-09 16:32:00,63.0,24.0,-100.00,NNE,18,4.0,-999.0,23,0.00,,,-99.99,,2013-02-09 21:32:00,
2013-02-09 16:42:00,63.0,24.0,-100.00,NNE,18,4.0,-999.0,23,0.00,,,-99.99,,2013-02-09 21:42:00,
2013-02-09 17:22:00,58.0,40.0,-100.00,SE,143,3.0,-999.0,50,0.00,,,-99.99,,2013-02-09 22:22:00,
2013-02-09 17:32:00,58.0,-99.9,-100.00,SE,143,3.0,-999.0,50,0.00,,,-99.99,,2013-02-09 22:32:00,
2013-02-09 17:42:00,58.0,40.0,-100.00,SE,143,3.0,-999.0,50,0.00,,,-99.99,,2013-02-09 22:42:00,
2013-02-09 18:22:00,54.0,42.0,-100.00,SSE,161,1.0,-999.0,64,0.00,,,-99.99,,2013-02-09 23:22:00,
2013-02-09 18:32:00,54.0,-99.9,-100.00,SSE,161,1.0,-999.0,64,0.00,,,-99.99,,2013-02-09 23:32:00,
2013-02-09 18:42:00,54.0,42.0,-100.00,SSE,161,1.0,-999.0,64,0.00,,,-99.99,,2013-02-09 23:42:00,
2013-02-09 19:22:00,49.0,41.0,-100.00,SSE,151,0.0,-999.0,73,0.00,,,-99.99,,2013-02-10 00:22:00,
2013-02-09 19:32:00,49.0,41.0,-100.00,SSE,151,0.0,-999.0,73,0.00,,,-99.99,,2013-02-10 00:32:00,
2013-02-09 19:42:00,49.0,41.0,-100.00,SSE,151,0.0,-999.0,73,0.00,,,-99.99,,2013-02-10 00:42:00,
2013-02-09 20:22:00,45.0,41.0,-100.00,South,177,0.0,-999.0,85,0.00,,,-99.99,,2013-02-10 01:22:00,
2013-02-09 20:32:00,45.0,41.0,-100.00,South,177,0.0,-999.0,85,0.00,,,-99.99,,2013-02-10 01:32:00,
2013-02-09 20:42:00,45.0,41.0,-100.00,South,177,0.0,-999.0,85,0.00,,,-99.99,,2013-02-10 01:42:00,
2013-02-09 21:22:00,43.0,41.0,-100.00,NW,306,0.0,-999.0,94,0.00,,,-99.99,,2013-02-10 02:22:00,
2013-02-09 21:32:00,43.0,41.0,-100.00,NW,306,0.0,-999.0,94,0.00,,,-99.99,,2013-02-10 02:32:00,
2013-02-09 21:42:00,43.0,41.0,-100.00,NW,306,0.0,-999.0,94,0.00,,,-99.99,,2013-02-10 02:42:00,
2013-02-09 22:22:00,41.0,40.0,-100.00,WNW,300,0.0,-999.0,97,0.00,,,-99.99,,2013-02-10 03:22:00,
2013-02-09 22:32:00,41.0,40.0,-100.00,WNW,300,0.0,-999.0,97,0.00,,,-99.99,,2013-02-10 03:32:00,
2013-02-09 22:42:00,41.0,40.0,-100.00,WNW,300,0.0,-999.0,97,0.00,,,-99.99,,2013-02-10 03:42:00,
2013-02-09 23:22:00,40.0,40.0,-100.00,WNW,300,0.0,-999.0,99,0.00,,,-99.99,,2013-02-10 04:22:00,
2013-02-09 23:32:00,40.0,40.0,-100.00,WNW,300,0.0,-999.0,99,0.00,,,-99.99,,2013-02-10 04:32:00,
2013-02-09 23:42:00,40.0,40.0,-100.00,WNW,300,0.0,-999.0,99,0.00,,,-99.99,,2013-02-10 04:42:00,